sensor_id;sensor_type;location;lat;lon;timestamp;temperature;humidity
10692;DHT22;5396;50.950;6.988;2024-02-16T00:01:18;12.60;99.90
10692;DHT22;5396;50.950;6.988;2024-02-16T00:03:43;12.60;99.90
10692;DHT22;5396;50.950;6.988;2024-02-16T00:06:09;12.60;99.90
10692;DHT22;5396;50.950;6.988;2024-02-16T00:08:34;12.70;99.90
10692;DHT22;5396;50.950;6.988;2024-02-16T00:11:04;12.70;99.90
10692;DHT22;5396;50.950;6.988;2024-02-16T00:13:29;12.80;99.90
10692;DHT22;5396;50.950;6.988;2024-02-16T00:15:55;12.70;99.90
10692;DHT22;5396;50.950;6.988;2024-02-16T00:18:21;12.70;99.90
10692;DHT22;5396;50.950;6.988;2024-02-16T00:20:46;12.70;99.90
10692;DHT22;5396;50.950;6.988;2024-02-16T00:23:11;12.70;99.90
10692;DHT22;5396;50.950;6.988;2024-02-16T00:25:37;12.70;99.90
10692;DHT22;5396;50.950;6.988;2024-02-16T00:28:05;12.70;99.90
10692;DHT22;5396;50.950;6.988;2024-02-16T00:30:30;12.70;99.90
10692;DHT22;5396;50.950;6.988;2024-02-16T00:32:56;12.70;99.90
10692;DHT22;5396;50.950;6.988;2024-02-16T00:35:21;12.70;99.90
10692;DHT22;5396;50.950;6.988;2024-02-16T00:37:47;12.70;99.90
10692;DHT22;5396;50.950;6.988;2024-02-16T00:40:13;12.70;99.90
10692;DHT22;5396;50.950;6.988;2024-02-16T00:42:38;12.60;99.90
10692;DHT22;5396;50.950;6.988;2024-02-16T00:45:04;12.60;99.90
10692;DHT22;5396;50.950;6.988;2024-02-16T00:47:30;12.50;99.90
10692;DHT22;5396;50.950;6.988;2024-02-16T00:49:56;12.50;99.90
10692;DHT22;5396;50.950;6.988;2024-02-16T00:52:22;12.40;99.90
10692;DHT22;5396;50.950;6.988;2024-02-16T00:54:48;12.50;99.90
10692;DHT22;5396;50.950;6.988;2024-02-16T00:57:13;12.60;99.90
10692;DHT22;5396;50.950;6.988;2024-02-16T00:59:39;12.60;99.90
10692;DHT22;5396;50.950;6.988;2024-02-16T01:02:05;12.60;99.90
10692;DHT22;5396;50.950;6.988;2024-02-16T01:04:33;12.60;99.90
10692;DHT22;5396;50.950;6.988;2024-02-16T01:06:59;12.70;99.90
10692;DHT22;5396;50.950;6.988;2024-02-16T01:09:24;12.70;99.90
10692;DHT22;5396;50.950;6.988;2024-02-16T01:11:50;12.70;99.90
10692;DHT22;5396;50.950;6.988;2024-02-16T01:14:15;12.70;99.90
10692;DHT22;5396;50.950;6.988;2024-02-16T01:16:41;12.70;99.90
10692;DHT22;5396;50.950;6.988;2024-02-16T01:19:06;12.70;99.90
10692;DHT22;5396;50.950;6.988;2024-02-16T01:21:32;12.70;99.90
10692;DHT22;5396;50.950;6.988;2024-02-16T01:23:58;12.70;99.90
10692;DHT22;5396;50.950;6.988;2024-02-16T01:26:26;12.80;99.90
10692;DHT22;5396;50.950;6.988;2024-02-16T01:28:52;12.80;99.90
10692;DHT22;5396;50.950;6.988;2024-02-16T01:31:17;12.80;99.90
10692;DHT22;5396;50.950;6.988;2024-02-16T01:33:43;12.80;99.90
10692;DHT22;5396;50.950;6.988;2024-02-16T01:36:08;12.80;99.90
10692;DHT22;5396;50.950;6.988;2024-02-16T01:38:33;12.90;99.90
10692;DHT22;5396;50.950;6.988;2024-02-16T01:41:00;12.90;99.90
10692;DHT22;5396;50.950;6.988;2024-02-16T01:43:26;12.80;99.90
10692;DHT22;5396;50.950;6.988;2024-02-16T01:45:52;12.80;99.90
10692;DHT22;5396;50.950;6.988;2024-02-16T01:48:18;12.80;99.90
10692;DHT22;5396;50.950;6.988;2024-02-16T01:50:43;12.80;99.90
10692;DHT22;5396;50.950;6.988;2024-02-16T01:53:10;12.80;99.90
10692;DHT22;5396;50.950;6.988;2024-02-16T01:55:36;12.80;99.90
10692;DHT22;5396;50.950;6.988;2024-02-16T01:58:02;12.80;99.90
10692;DHT22;5396;50.950;6.988;2024-02-16T02:00:30;12.80;99.90
10692;DHT22;5396;50.950;6.988;2024-02-16T02:02:55;12.80;99.90
10692;DHT22;5396;50.950;6.988;2024-02-16T02:05:22;12.80;99.90
10692;DHT22;5396;50.950;6.988;2024-02-16T02:07:48;12.80;99.90
10692;DHT22;5396;50.950;6.988;2024-02-16T02:10:13;12.80;99.90
10692;DHT22;5396;50.950;6.988;2024-02-16T02:12:39;12.80;99.90
10692;DHT22;5396;50.950;6.988;2024-02-16T02:15:05;12.80;99.90
10692;DHT22;5396;50.950;6.988;2024-02-16T02:17:31;12.90;99.90
10692;DHT22;5396;50.950;6.988;2024-02-16T02:19:56;12.80;99.90
10692;DHT22;5396;50.950;6.988;2024-02-16T02:22:22;12.80;99.90
10692;DHT22;5396;50.950;6.988;2024-02-16T02:24:47;12.90;99.90
10692;DHT22;5396;50.950;6.988;2024-02-16T02:27:14;12.90;99.90
10692;DHT22;5396;50.950;6.988;2024-02-16T02:29:40;12.90;99.90
10692;DHT22;5396;50.950;6.988;2024-02-16T02:32:06;12.90;99.90
10692;DHT22;5396;50.950;6.988;2024-02-16T02:34:32;12.90;99.90
10692;DHT22;5396;50.950;6.988;2024-02-16T02:36:57;12.90;99.90
10692;DHT22;5396;50.950;6.988;2024-02-16T02:39:23;12.80;99.90
10692;DHT22;5396;50.950;6.988;2024-02-16T02:41:50;12.80;99.90
10692;DHT22;5396;50.950;6.988;2024-02-16T02:44:15;12.80;99.90
10692;DHT22;5396;50.950;6.988;2024-02-16T02:46:41;12.80;99.90
10692;DHT22;5396;50.950;6.988;2024-02-16T02:49:06;12.80;99.90
10692;DHT22;5396;50.950;6.988;2024-02-16T02:51:32;12.90;99.90
10692;DHT22;5396;50.950;6.988;2024-02-16T02:53:57;12.90;99.90
10692;DHT22;5396;50.950;6.988;2024-02-16T02:56:23;12.90;99.90
10692;DHT22;5396;50.950;6.988;2024-02-16T02:58:48;12.90;99.90
10692;DHT22;5396;50.950;6.988;2024-02-16T03:01:14;12.90;99.90
10692;DHT22;5396;50.950;6.988;2024-02-16T03:03:40;12.90;99.90
10692;DHT22;5396;50.950;6.988;2024-02-16T03:06:06;13.00;99.90
10692;DHT22;5396;50.950;6.988;2024-02-16T03:08:31;13.00;99.90
10692;DHT22;5396;50.950;6.988;2024-02-16T03:10:57;13.00;99.90
10692;DHT22;5396;50.950;6.988;2024-02-16T03:13:26;13.00;99.90
10692;DHT22;5396;50.950;6.988;2024-02-16T03:15:51;13.00;99.90
10692;DHT22;5396;50.950;6.988;2024-02-16T03:18:18;13.00;99.90
10692;DHT22;5396;50.950;6.988;2024-02-16T03:20:44;13.00;99.90
10692;DHT22;5396;50.950;6.988;2024-02-16T03:23:13;13.00;99.90
10692;DHT22;5396;50.950;6.988;2024-02-16T03:25:38;13.00;99.90
10692;DHT22;5396;50.950;6.988;2024-02-16T03:28:04;12.90;99.90
10692;DHT22;5396;50.950;6.988;2024-02-16T03:30:30;12.90;99.90
10692;DHT22;5396;50.950;6.988;2024-02-16T03:32:56;12.90;99.90
10692;DHT22;5396;50.950;6.988;2024-02-16T03:35:21;12.90;99.90
10692;DHT22;5396;50.950;6.988;2024-02-16T03:37:47;12.80;99.90
10692;DHT22;5396;50.950;6.988;2024-02-16T03:40:12;12.80;99.90
10692;DHT22;5396;50.950;6.988;2024-02-16T03:42:38;12.80;99.90
10692;DHT22;5396;50.950;6.988;2024-02-16T03:45:04;12.80;99.90
10692;DHT22;5396;50.950;6.988;2024-02-16T03:47:30;12.80;99.90
10692;DHT22;5396;50.950;6.988;2024-02-16T03:49:55;12.80;99.90
10692;DHT22;5396;50.950;6.988;2024-02-16T03:52:21;12.80;99.90
10692;DHT22;5396;50.950;6.988;2024-02-16T03:54:46;12.80;99.90
10692;DHT22;5396;50.950;6.988;2024-02-16T03:57:15;12.80;99.90
10692;DHT22;5396;50.950;6.988;2024-02-16T03:59:42;12.80;99.90
10692;DHT22;5396;50.950;6.988;2024-02-16T04:02:09;12.80;99.90
10692;DHT22;5396;50.950;6.988;2024-02-16T04:04:35;12.80;99.90
10692;DHT22;5396;50.950;6.988;2024-02-16T04:07:00;12.80;99.90
10692;DHT22;5396;50.950;6.988;2024-02-16T04:09:26;12.70;99.90
10692;DHT22;5396;50.950;6.988;2024-02-16T04:11:51;12.70;99.90
10692;DHT22;5396;50.950;6.988;2024-02-16T04:14:17;12.70;99.90
10692;DHT22;5396;50.950;6.988;2024-02-16T04:16:43;12.70;99.90
10692;DHT22;5396;50.950;6.988;2024-02-16T04:19:09;12.70;99.90
10692;DHT22;5396;50.950;6.988;2024-02-16T04:21:34;12.70;99.90
10692;DHT22;5396;50.950;6.988;2024-02-16T04:24:00;12.70;99.90
10692;DHT22;5396;50.950;6.988;2024-02-16T04:26:25;12.70;99.90
10692;DHT22;5396;50.950;6.988;2024-02-16T04:28:51;12.70;99.90
10692;DHT22;5396;50.950;6.988;2024-02-16T04:31:16;12.70;99.90
10692;DHT22;5396;50.950;6.988;2024-02-16T04:33:45;12.70;99.90
10692;DHT22;5396;50.950;6.988;2024-02-16T04:36:10;12.70;99.90
10692;DHT22;5396;50.950;6.988;2024-02-16T04:38:36;12.70;99.90
10692;DHT22;5396;50.950;6.988;2024-02-16T04:41:01;12.60;99.90
10692;DHT22;5396;50.950;6.988;2024-02-16T04:43:27;12.60;99.90
10692;DHT22;5396;50.950;6.988;2024-02-16T04:45:52;12.50;99.90
10692;DHT22;5396;50.950;6.988;2024-02-16T04:48:19;12.50;99.90
10692;DHT22;5396;50.950;6.988;2024-02-16T04:50:45;12.40;99.90
10692;DHT22;5396;50.950;6.988;2024-02-16T04:53:10;12.50;99.90
10692;DHT22;5396;50.950;6.988;2024-02-16T04:55:36;12.50;99.90
10692;DHT22;5396;50.950;6.988;2024-02-16T04:58:01;12.50;99.90
10692;DHT22;5396;50.950;6.988;2024-02-16T05:00:30;12.40;99.90
10692;DHT22;5396;50.950;6.988;2024-02-16T05:02:55;12.50;99.90
10692;DHT22;5396;50.950;6.988;2024-02-16T05:05:21;12.50;99.90
10692;DHT22;5396;50.950;6.988;2024-02-16T05:07:47;12.50;99.90
10692;DHT22;5396;50.950;6.988;2024-02-16T05:10:15;12.50;99.90
10692;DHT22;5396;50.950;6.988;2024-02-16T05:12:41;12.50;99.90
10692;DHT22;5396;50.950;6.988;2024-02-16T05:15:07;12.60;99.90
10692;DHT22;5396;50.950;6.988;2024-02-16T05:17:33;12.60;99.90
10692;DHT22;5396;50.950;6.988;2024-02-16T05:19:58;12.60;99.90
10692;DHT22;5396;50.950;6.988;2024-02-16T05:22:24;12.60;99.90
10692;DHT22;5396;50.950;6.988;2024-02-16T05:24:50;12.60;99.90
10692;DHT22;5396;50.950;6.988;2024-02-16T05:27:15;12.50;99.90
10692;DHT22;5396;50.950;6.988;2024-02-16T05:29:41;12.60;99.90
10692;DHT22;5396;50.950;6.988;2024-02-16T05:32:07;12.60;99.90
10692;DHT22;5396;50.950;6.988;2024-02-16T05:34:33;12.50;99.90
10692;DHT22;5396;50.950;6.988;2024-02-16T05:37:03;12.50;99.90
10692;DHT22;5396;50.950;6.988;2024-02-16T05:39:29;12.60;99.90
10692;DHT22;5396;50.950;6.988;2024-02-16T05:41:57;12.60;99.90
10692;DHT22;5396;50.950;6.988;2024-02-16T05:44:22;12.50;99.90
10692;DHT22;5396;50.950;6.988;2024-02-16T05:46:48;12.60;99.90
10692;DHT22;5396;50.950;6.988;2024-02-16T05:49:14;12.60;99.90
10692;DHT22;5396;50.950;6.988;2024-02-16T05:51:40;12.60;99.90
10692;DHT22;5396;50.950;6.988;2024-02-16T05:54:06;12.60;99.90
10692;DHT22;5396;50.950;6.988;2024-02-16T05:56:36;12.60;99.90
10692;DHT22;5396;50.950;6.988;2024-02-16T05:59:06;12.50;99.90
10692;DHT22;5396;50.950;6.988;2024-02-16T06:01:31;12.60;99.90
10692;DHT22;5396;50.950;6.988;2024-02-16T06:03:57;12.50;99.90
10692;DHT22;5396;50.950;6.988;2024-02-16T06:06:22;12.50;99.90
10692;DHT22;5396;50.950;6.988;2024-02-16T06:08:48;12.50;99.90
10692;DHT22;5396;50.950;6.988;2024-02-16T06:11:13;12.60;99.90
10692;DHT22;5396;50.950;6.988;2024-02-16T06:13:38;12.50;99.90
10692;DHT22;5396;50.950;6.988;2024-02-16T06:16:05;12.50;99.90
10692;DHT22;5396;50.950;6.988;2024-02-16T06:18:30;12.50;99.90
10692;DHT22;5396;50.950;6.988;2024-02-16T06:20:56;12.50;99.90
10692;DHT22;5396;50.950;6.988;2024-02-16T06:23:21;12.50;99.90
10692;DHT22;5396;50.950;6.988;2024-02-16T06:25:47;12.50;99.90
10692;DHT22;5396;50.950;6.988;2024-02-16T06:28:12;12.50;99.90
10692;DHT22;5396;50.950;6.988;2024-02-16T06:30:38;12.50;99.90
10692;DHT22;5396;50.950;6.988;2024-02-16T06:33:03;12.60;99.90
10692;DHT22;5396;50.950;6.988;2024-02-16T06:35:32;12.70;99.90
10692;DHT22;5396;50.950;6.988;2024-02-16T06:37:57;12.70;99.90
10692;DHT22;5396;50.950;6.988;2024-02-16T06:40:24;12.70;99.90
10692;DHT22;5396;50.950;6.988;2024-02-16T06:42:51;12.80;99.90
10692;DHT22;5396;50.950;6.988;2024-02-16T06:45:17;12.90;99.90
10692;DHT22;5396;50.950;6.988;2024-02-16T06:47:42;12.90;99.90
10692;DHT22;5396;50.950;6.988;2024-02-16T06:50:09;12.90;99.90
10692;DHT22;5396;50.950;6.988;2024-02-16T06:52:34;12.90;99.90
10692;DHT22;5396;50.950;6.988;2024-02-16T06:55:00;12.90;99.90
10692;DHT22;5396;50.950;6.988;2024-02-16T06:57:26;13.00;99.90
10692;DHT22;5396;50.950;6.988;2024-02-16T06:59:51;13.00;99.90
10692;DHT22;5396;50.950;6.988;2024-02-16T07:02:18;13.00;99.90
10692;DHT22;5396;50.950;6.988;2024-02-16T07:04:44;13.00;99.90
10692;DHT22;5396;50.950;6.988;2024-02-16T07:07:11;13.00;99.90
10692;DHT22;5396;50.950;6.988;2024-02-16T07:09:36;13.00;99.90
10692;DHT22;5396;50.950;6.988;2024-02-16T07:12:02;13.10;99.90
10692;DHT22;5396;50.950;6.988;2024-02-16T07:14:28;13.20;99.90
10692;DHT22;5396;50.950;6.988;2024-02-16T07:16:53;13.20;99.90
10692;DHT22;5396;50.950;6.988;2024-02-16T07:19:19;13.20;99.90
10692;DHT22;5396;50.950;6.988;2024-02-16T07:21:44;13.30;99.90
10692;DHT22;5396;50.950;6.988;2024-02-16T07:24:10;13.30;99.90
10692;DHT22;5396;50.950;6.988;2024-02-16T07:26:35;13.30;99.90
10692;DHT22;5396;50.950;6.988;2024-02-16T07:29:01;13.40;99.90
10692;DHT22;5396;50.950;6.988;2024-02-16T07:31:31;13.40;99.90
10692;DHT22;5396;50.950;6.988;2024-02-16T07:33:57;13.40;99.90
10692;DHT22;5396;50.950;6.988;2024-02-16T07:36:22;13.40;99.90
10692;DHT22;5396;50.950;6.988;2024-02-16T07:38:48;13.50;99.90
10692;DHT22;5396;50.950;6.988;2024-02-16T07:41:13;13.50;99.90
10692;DHT22;5396;50.950;6.988;2024-02-16T07:43:39;13.50;99.90
10692;DHT22;5396;50.950;6.988;2024-02-16T07:46:04;13.50;99.90
10692;DHT22;5396;50.950;6.988;2024-02-16T07:48:30;13.50;99.90
10692;DHT22;5396;50.950;6.988;2024-02-16T07:50:55;13.50;99.90
10692;DHT22;5396;50.950;6.988;2024-02-16T07:53:23;13.50;99.90
10692;DHT22;5396;50.950;6.988;2024-02-16T07:55:49;13.50;99.90
10692;DHT22;5396;50.950;6.988;2024-02-16T07:58:14;13.60;99.90
10692;DHT22;5396;50.950;6.988;2024-02-16T08:00:40;13.60;99.90
10692;DHT22;5396;50.950;6.988;2024-02-16T08:03:05;13.50;99.90
10692;DHT22;5396;50.950;6.988;2024-02-16T08:05:31;13.60;99.90
10692;DHT22;5396;50.950;6.988;2024-02-16T08:07:57;13.60;99.90
10692;DHT22;5396;50.950;6.988;2024-02-16T08:10:23;13.60;99.90
10692;DHT22;5396;50.950;6.988;2024-02-16T08:12:50;13.60;99.90
10692;DHT22;5396;50.950;6.988;2024-02-16T08:15:16;13.60;99.90
10692;DHT22;5396;50.950;6.988;2024-02-16T08:17:48;13.60;99.90
10692;DHT22;5396;50.950;6.988;2024-02-16T08:20:13;13.60;99.90
10692;DHT22;5396;50.950;6.988;2024-02-16T08:22:40;13.60;99.90
10692;DHT22;5396;50.950;6.988;2024-02-16T08:25:06;13.60;99.90
10692;DHT22;5396;50.950;6.988;2024-02-16T08:27:34;13.70;99.90
10692;DHT22;5396;50.950;6.988;2024-02-16T08:30:00;13.70;99.90
10692;DHT22;5396;50.950;6.988;2024-02-16T08:32:29;13.70;99.90
10692;DHT22;5396;50.950;6.988;2024-02-16T08:34:55;13.80;99.90
10692;DHT22;5396;50.950;6.988;2024-02-16T08:37:21;13.80;99.90
10692;DHT22;5396;50.950;6.988;2024-02-16T08:39:47;13.80;99.90
10692;DHT22;5396;50.950;6.988;2024-02-16T08:42:12;13.80;99.90
10692;DHT22;5396;50.950;6.988;2024-02-16T08:44:38;13.80;99.90
10692;DHT22;5396;50.950;6.988;2024-02-16T08:47:06;13.90;99.90
10692;DHT22;5396;50.950;6.988;2024-02-16T08:49:32;13.90;99.90
10692;DHT22;5396;50.950;6.988;2024-02-16T08:51:58;14.00;99.90
10692;DHT22;5396;50.950;6.988;2024-02-16T08:54:23;14.00;99.90
10692;DHT22;5396;50.950;6.988;2024-02-16T08:56:49;14.10;99.90
10692;DHT22;5396;50.950;6.988;2024-02-16T08:59:15;14.20;99.90
10692;DHT22;5396;50.950;6.988;2024-02-16T09:01:42;14.10;99.90
10692;DHT22;5396;50.950;6.988;2024-02-16T09:04:07;14.20;99.90
10692;DHT22;5396;50.950;6.988;2024-02-16T09:06:33;14.30;99.90
10692;DHT22;5396;50.950;6.988;2024-02-16T09:09:00;14.40;99.90
10692;DHT22;5396;50.950;6.988;2024-02-16T09:11:25;14.40;99.90
10692;DHT22;5396;50.950;6.988;2024-02-16T09:13:51;14.40;99.90
10692;DHT22;5396;50.950;6.988;2024-02-16T09:16:17;14.40;99.90
10692;DHT22;5396;50.950;6.988;2024-02-16T09:18:42;14.50;99.90
10692;DHT22;5396;50.950;6.988;2024-02-16T09:21:08;14.50;99.90
10692;DHT22;5396;50.950;6.988;2024-02-16T09:23:34;14.60;99.90
10692;DHT22;5396;50.950;6.988;2024-02-16T09:26:00;14.60;99.90
10692;DHT22;5396;50.950;6.988;2024-02-16T09:28:26;14.60;99.90
10692;DHT22;5396;50.950;6.988;2024-02-16T09:30:51;14.50;99.90
10692;DHT22;5396;50.950;6.988;2024-02-16T09:33:17;14.50;99.90
10692;DHT22;5396;50.950;6.988;2024-02-16T09:35:43;14.40;99.90
10692;DHT22;5396;50.950;6.988;2024-02-16T09:38:08;14.40;99.90
10692;DHT22;5396;50.950;6.988;2024-02-16T09:40:37;14.40;99.90
10692;DHT22;5396;50.950;6.988;2024-02-16T09:43:02;14.40;99.90
10692;DHT22;5396;50.950;6.988;2024-02-16T09:45:28;14.50;99.90
10692;DHT22;5396;50.950;6.988;2024-02-16T09:47:54;14.60;99.90
10692;DHT22;5396;50.950;6.988;2024-02-16T09:50:20;14.60;99.90
10692;DHT22;5396;50.950;6.988;2024-02-16T09:52:47;14.60;99.90
10692;DHT22;5396;50.950;6.988;2024-02-16T09:55:14;14.70;99.90
10692;DHT22;5396;50.950;6.988;2024-02-16T09:57:39;14.60;99.90
10692;DHT22;5396;50.950;6.988;2024-02-16T10:00:05;14.50;99.90
10692;DHT22;5396;50.950;6.988;2024-02-16T10:02:43;14.50;99.90
10692;DHT22;5396;50.950;6.988;2024-02-16T10:05:16;14.50;99.90
10692;DHT22;5396;50.950;6.988;2024-02-16T10:07:45;14.40;99.90
10692;DHT22;5396;50.950;6.988;2024-02-16T10:10:24;14.40;99.90
10692;DHT22;5396;50.950;6.988;2024-02-16T10:12:50;14.30;99.90
10692;DHT22;5396;50.950;6.988;2024-02-16T10:15:21;14.30;99.90
10692;DHT22;5396;50.950;6.988;2024-02-16T10:18:00;14.30;99.90
10692;DHT22;5396;50.950;6.988;2024-02-16T10:20:26;14.30;99.90
10692;DHT22;5396;50.950;6.988;2024-02-16T10:23:10;14.40;99.90
10692;DHT22;5396;50.950;6.988;2024-02-16T10:25:36;14.50;99.90
10692;DHT22;5396;50.950;6.988;2024-02-16T10:28:05;14.60;99.90
10692;DHT22;5396;50.950;6.988;2024-02-16T10:30:31;14.60;99.90
10692;DHT22;5396;50.950;6.988;2024-02-16T10:32:59;14.60;99.90
10692;DHT22;5396;50.950;6.988;2024-02-16T10:35:25;14.60;99.90
10692;DHT22;5396;50.950;6.988;2024-02-16T10:37:51;14.60;99.90
10692;DHT22;5396;50.950;6.988;2024-02-16T10:40:20;14.50;99.90
10692;DHT22;5396;50.950;6.988;2024-02-16T10:42:48;14.40;99.90
10692;DHT22;5396;50.950;6.988;2024-02-16T10:45:15;14.40;99.90
10692;DHT22;5396;50.950;6.988;2024-02-16T10:47:40;14.30;99.90
10692;DHT22;5396;50.950;6.988;2024-02-16T10:50:06;14.30;99.90
10692;DHT22;5396;50.950;6.988;2024-02-16T10:52:32;14.20;99.90
10692;DHT22;5396;50.950;6.988;2024-02-16T10:55:01;14.20;99.90
10692;DHT22;5396;50.950;6.988;2024-02-16T10:57:27;14.20;99.90
10692;DHT22;5396;50.950;6.988;2024-02-16T10:59:53;14.10;99.90
10692;DHT22;5396;50.950;6.988;2024-02-16T11:02:19;14.10;99.90
10692;DHT22;5396;50.950;6.988;2024-02-16T11:04:45;14.20;99.90
10692;DHT22;5396;50.950;6.988;2024-02-16T11:07:11;14.10;99.90
10692;DHT22;5396;50.950;6.988;2024-02-16T11:09:38;14.10;99.90
10692;DHT22;5396;50.950;6.988;2024-02-16T11:12:05;14.20;99.90
10692;DHT22;5396;50.950;6.988;2024-02-16T11:14:34;14.20;99.90
10692;DHT22;5396;50.950;6.988;2024-02-16T11:16:59;14.20;99.90
10692;DHT22;5396;50.950;6.988;2024-02-16T11:19:25;14.20;99.90
10692;DHT22;5396;50.950;6.988;2024-02-16T11:22:02;14.30;99.90
10692;DHT22;5396;50.950;6.988;2024-02-16T11:24:33;14.30;99.90
10692;DHT22;5396;50.950;6.988;2024-02-16T11:27:02;14.40;99.90
10692;DHT22;5396;50.950;6.988;2024-02-16T11:29:30;14.40;99.90
10692;DHT22;5396;50.950;6.988;2024-02-16T11:31:56;14.50;99.90
10692;DHT22;5396;50.950;6.988;2024-02-16T11:34:23;14.50;99.90
10692;DHT22;5396;50.950;6.988;2024-02-16T11:36:48;14.50;99.90
10692;DHT22;5396;50.950;6.988;2024-02-16T11:39:14;14.60;99.90
10692;DHT22;5396;50.950;6.988;2024-02-16T11:41:42;14.50;99.90
10692;DHT22;5396;50.950;6.988;2024-02-16T11:44:08;14.50;99.90
10692;DHT22;5396;50.950;6.988;2024-02-16T11:46:34;14.60;99.90
10692;DHT22;5396;50.950;6.988;2024-02-16T11:49:04;14.60;99.90
10692;DHT22;5396;50.950;6.988;2024-02-16T11:51:30;14.70;99.90
10692;DHT22;5396;50.950;6.988;2024-02-16T11:53:56;14.70;99.90
10692;DHT22;5396;50.950;6.988;2024-02-16T11:56:23;14.80;99.90
10692;DHT22;5396;50.950;6.988;2024-02-16T11:58:49;14.80;99.90
10692;DHT22;5396;50.950;6.988;2024-02-16T12:01:15;14.80;99.90
10692;DHT22;5396;50.950;6.988;2024-02-16T12:03:41;14.80;99.90
10692;DHT22;5396;50.950;6.988;2024-02-16T12:06:07;14.70;99.90
10692;DHT22;5396;50.950;6.988;2024-02-16T12:08:33;14.70;99.90
10692;DHT22;5396;50.950;6.988;2024-02-16T12:10:59;14.70;99.90
10692;DHT22;5396;50.950;6.988;2024-02-16T12:13:25;14.60;99.90
10692;DHT22;5396;50.950;6.988;2024-02-16T12:15:51;14.60;99.90
10692;DHT22;5396;50.950;6.988;2024-02-16T12:18:22;14.50;99.90
10692;DHT22;5396;50.950;6.988;2024-02-16T12:23:25;14.50;99.90
10692;DHT22;5396;50.950;6.988;2024-02-16T12:25:53;14.40;99.90
10692;DHT22;5396;50.950;6.988;2024-02-16T12:28:19;14.40;99.90
10692;DHT22;5396;50.950;6.988;2024-02-16T12:30:46;14.40;99.90
10692;DHT22;5396;50.950;6.988;2024-02-16T12:33:11;14.30;99.90
10692;DHT22;5396;50.950;6.988;2024-02-16T12:35:37;14.30;99.90
10692;DHT22;5396;50.950;6.988;2024-02-16T12:38:02;14.30;99.90
10692;DHT22;5396;50.950;6.988;2024-02-16T12:40:28;14.30;99.90
10692;DHT22;5396;50.950;6.988;2024-02-16T12:42:54;14.30;99.90
10692;DHT22;5396;50.950;6.988;2024-02-16T12:45:19;14.20;99.90
10692;DHT22;5396;50.950;6.988;2024-02-16T12:47:45;14.20;99.90
10692;DHT22;5396;50.950;6.988;2024-02-16T12:50:12;14.30;99.90
10692;DHT22;5396;50.950;6.988;2024-02-16T12:52:37;14.30;99.90
10692;DHT22;5396;50.950;6.988;2024-02-16T12:55:06;14.30;99.90
10692;DHT22;5396;50.950;6.988;2024-02-16T12:57:32;14.30;99.90
10692;DHT22;5396;50.950;6.988;2024-02-16T12:59:57;14.30;99.90
10692;DHT22;5396;50.950;6.988;2024-02-16T13:02:23;14.30;99.90
10692;DHT22;5396;50.950;6.988;2024-02-16T13:04:49;14.40;99.90
10692;DHT22;5396;50.950;6.988;2024-02-16T13:07:15;14.40;99.90
10692;DHT22;5396;50.950;6.988;2024-02-16T13:09:40;14.40;99.90
10692;DHT22;5396;50.950;6.988;2024-02-16T13:12:07;14.20;99.90
10692;DHT22;5396;50.950;6.988;2024-02-16T13:14:33;13.90;99.90
10692;DHT22;5396;50.950;6.988;2024-02-16T13:16:58;13.80;99.90
10692;DHT22;5396;50.950;6.988;2024-02-16T13:19:24;13.60;99.90
10692;DHT22;5396;50.950;6.988;2024-02-16T13:21:49;13.60;99.90
10692;DHT22;5396;50.950;6.988;2024-02-16T13:24:15;13.50;99.90
10692;DHT22;5396;50.950;6.988;2024-02-16T13:26:41;13.50;99.90
10692;DHT22;5396;50.950;6.988;2024-02-16T13:29:06;13.40;99.90
10692;DHT22;5396;50.950;6.988;2024-02-16T13:31:32;13.40;99.90
10692;DHT22;5396;50.950;6.988;2024-02-16T13:33:58;13.40;99.90
10692;DHT22;5396;50.950;6.988;2024-02-16T13:36:24;13.40;99.90
10692;DHT22;5396;50.950;6.988;2024-02-16T13:38:49;13.40;99.90
10692;DHT22;5396;50.950;6.988;2024-02-16T13:41:15;13.30;99.90
10692;DHT22;5396;50.950;6.988;2024-02-16T13:43:41;13.30;99.90
10692;DHT22;5396;50.950;6.988;2024-02-16T13:46:06;13.30;99.90
10692;DHT22;5396;50.950;6.988;2024-02-16T13:48:33;13.30;99.90
10692;DHT22;5396;50.950;6.988;2024-02-16T13:51:02;13.30;99.90
10692;DHT22;5396;50.950;6.988;2024-02-16T13:53:28;13.30;99.90
10692;DHT22;5396;50.950;6.988;2024-02-16T13:55:53;13.30;99.90
10692;DHT22;5396;50.950;6.988;2024-02-16T13:58:22;13.40;99.90
10692;DHT22;5396;50.950;6.988;2024-02-16T14:00:47;13.30;99.90
10692;DHT22;5396;50.950;6.988;2024-02-16T14:03:14;13.30;99.90
10692;DHT22;5396;50.950;6.988;2024-02-16T14:05:40;13.30;99.90
10692;DHT22;5396;50.950;6.988;2024-02-16T14:08:06;13.30;99.90
10692;DHT22;5396;50.950;6.988;2024-02-16T14:10:34;13.30;99.90
10692;DHT22;5396;50.950;6.988;2024-02-16T14:13:00;13.40;99.90
10692;DHT22;5396;50.950;6.988;2024-02-16T14:15:25;13.40;99.90
10692;DHT22;5396;50.950;6.988;2024-02-16T14:17:51;13.40;99.90
10692;DHT22;5396;50.950;6.988;2024-02-16T14:20:17;13.40;99.90
10692;DHT22;5396;50.950;6.988;2024-02-16T14:22:43;13.40;99.90
10692;DHT22;5396;50.950;6.988;2024-02-16T14:25:10;13.50;99.90
10692;DHT22;5396;50.950;6.988;2024-02-16T14:27:38;13.50;99.90
10692;DHT22;5396;50.950;6.988;2024-02-16T14:30:04;13.60;99.90
10692;DHT22;5396;50.950;6.988;2024-02-16T14:32:30;13.70;99.90
10692;DHT22;5396;50.950;6.988;2024-02-16T14:34:57;13.70;99.90
10692;DHT22;5396;50.950;6.988;2024-02-16T14:37:22;13.80;99.90
10692;DHT22;5396;50.950;6.988;2024-02-16T14:39:48;13.80;99.90
10692;DHT22;5396;50.950;6.988;2024-02-16T14:42:14;13.90;99.90
10692;DHT22;5396;50.950;6.988;2024-02-16T14:44:39;13.90;99.90
10692;DHT22;5396;50.950;6.988;2024-02-16T14:47:05;13.90;99.90
10692;DHT22;5396;50.950;6.988;2024-02-16T14:49:30;13.90;99.90
10692;DHT22;5396;50.950;6.988;2024-02-16T14:51:57;13.80;99.90
10692;DHT22;5396;50.950;6.988;2024-02-16T14:54:23;13.90;99.90
10692;DHT22;5396;50.950;6.988;2024-02-16T14:56:51;13.80;99.90
10692;DHT22;5396;50.950;6.988;2024-02-16T14:59:18;13.80;99.90
10692;DHT22;5396;50.950;6.988;2024-02-16T15:01:43;13.80;99.90
10692;DHT22;5396;50.950;6.988;2024-02-16T15:04:09;13.70;99.90
10692;DHT22;5396;50.950;6.988;2024-02-16T15:06:35;13.60;99.90
10692;DHT22;5396;50.950;6.988;2024-02-16T15:09:03;13.50;99.90
10692;DHT22;5396;50.950;6.988;2024-02-16T15:11:29;13.50;99.90
10692;DHT22;5396;50.950;6.988;2024-02-16T15:13:55;13.50;99.90
10692;DHT22;5396;50.950;6.988;2024-02-16T15:16:20;13.40;99.90
10692;DHT22;5396;50.950;6.988;2024-02-16T15:18:46;13.40;99.90
10692;DHT22;5396;50.950;6.988;2024-02-16T15:21:12;13.40;99.90
10692;DHT22;5396;50.950;6.988;2024-02-16T15:23:37;13.40;99.90
10692;DHT22;5396;50.950;6.988;2024-02-16T15:26:05;13.30;99.90
10692;DHT22;5396;50.950;6.988;2024-02-16T15:28:31;13.30;99.90
10692;DHT22;5396;50.950;6.988;2024-02-16T15:30:57;13.30;99.90
10692;DHT22;5396;50.950;6.988;2024-02-16T15:33:22;13.30;99.90
10692;DHT22;5396;50.950;6.988;2024-02-16T15:35:49;13.30;99.90
10692;DHT22;5396;50.950;6.988;2024-02-16T15:38:16;13.30;99.90
10692;DHT22;5396;50.950;6.988;2024-02-16T15:40:42;13.30;99.90